KJFX

Details ICAO KJFX
Name WALKER CO BEVILL FLD
Region United States
Timezone America/Chicago (UTC-5.0)
Plans Departing 6
Arriving 9
Stats Elevation 482 ft / 147 m (AMSL)
Location 33.902042° -87.313800°
Runways 1
Magnetic Variation 3.160° W
Sunrise 2018-05-23 10:44:27 UTC / 2018-05-23 05:44:27 Local
Sunset 2018-05-24 00:50:27 UTC / 2018-05-23 19:50:27 Local
Advertisement - Login to hide

Runways

ID Width Length Bearing (true) Bearing (mag) Surface Threshold Offset Overrun Length
09 100 ft / 30 m 4,990 ft / 1,521 m 91.88° 95.04° Asphalt 0 ft / 0 m 0 ft / 0 m
27 100 ft / 30 m 4,990 ft / 1,521 m 271.89° 275.05° Asphalt 200 ft / 61 m 0 ft / 0 m

Map

Weather


0- 5 10 15 20 25 30 35+ Temperature / ° C

Clouds and Precipitation
Forecast for 2018-05-23 12:00 UTC. Updated 40 minutes ago

Ground ~20,000 ft ~40,000 ft Winds

METAR

KJFX 230955Z AUTO 00000KT 1/2SM FG 19/19 A3004 RMK AO2 PWINO

TAF

Not found

Frequencies

Recorded 119.22 MHz AWOS 3
Approach 127.67 MHz BIRMINGHAM APP/DEP
Unicom 122.70 MHz CTAF/UNICOM
Warning: Do not use this data for real-world aviation or navigation. No guarantee of current accuracy is given.